Time;durP1;ratioP1;P1;durP2;ratioP2;P2;SDS_P1;SDS_P2;PMS_P1;PMS_P2;Temp;Humidity;BMP_temperature;BMP_pressure;BME280_temperature;BME280_humidity;BME280_pressure;Samples;Min_cycle;Max_cycle;Signal;HPM_P1;HPM_P2
2021/05/23 00:01:08;;;;;;;7.53;6.42;;;;;;;16.07;60.26;94533.96;833968;71;30212;-77
2021/05/23 00:16:20;;;;;;;6.90;5.90;;;;;;;15.87;60.55;94531.51;827419;71;32709;-75
2021/05/23 00:31:10;;;;;;;7.05;6.28;;;;;;;15.75;61.43;94532.98;828474;71;30312;-78
2021/05/23 00:46:08;;;;;;;7.25;6.58;;;;;;;15.61;61.85;94530.52;834017;71;29685;-77
2021/05/23 01:01:17;;;;;;;7.78;6.60;;;;;;;15.47;62.47;94555.08;827407;71;32685;-78
2021/05/23 01:16:39;;;;;;;5.90;5.35;;;;;;;15.34;62.73;94546.80;827277;71;32655;-78
2021/05/23 01:31:14;;;;;;;6.37;5.78;;;;;;;15.19;63.29;94524.30;829538;71;29712;-77
2021/05/23 01:46:17;;;;;;;6.25;5.55;;;;;;;15.04;64.07;94533.48;833996;71;33070;-78
2021/05/23 02:01:15;;;;;;;6.72;6.12;;;;;;;14.86;64.41;94541.22;827554;71;33600;-78
2021/05/23 02:16:16;;;;;;;8.70;6.50;;;;;;;14.68;65.15;94552.34;827925;71;33249;-78
2021/05/23 02:31:15;;;;;;;6.90;5.60;;;;;;;14.41;65.54;94543.62;828889;71;32797;-75
2021/05/23 02:46:19;;;;;;;6.60;5.80;;;;;;;14.16;66.15;94559.13;834249;71;32823;-76
2021/05/23 03:01:50;;;;;;;7.15;5.97;;;;;;;14.17;66.79;94555.94;829211;71;30203;-76
2021/05/23 03:16:08;;;;;;;6.42;5.83;;;;;;;14.31;66.75;94569.77;828842;71;29858;-77
2021/05/23 03:31:14;;;;;;;9.28;6.85;;;;;;;16.66;61.78;94570.92;827613;71;32745;-76
2021/05/23 03:46:08;;;;;;;6.37;5.78;;;;;;;18.13;57.94;94581.14;833986;71;30240;-79
2021/05/23 04:01:12;;;;;;;7.50;6.80;;;;;;;18.59;55.78;94578.29;828259;71;32023;-78
2021/05/23 04:16:15;;;;;;;8.40;7.20;;;;;;;19.92;52.73;94603.11;828267;71;32689;-78
2021/05/23 04:31:15;;;;;;;9.00;8.03;;;;;;;20.83;49.82;94611.44;827321;71;32710;-76
2021/05/23 04:46:14;;;;;;;11.15;10.05;;;;;;;19.80;52.62;94618.61;827521;71;32761;-75
2021/05/23 05:01:15;;;;;;;12.07;10.88;;;;;;;21.16;49.30;94606.16;827659;71;32705;-77
2021/05/23 05:16:11;;;;;;;11.68;10.60;;;;;;;22.31;46.51;94616.19;828173;71;30307;-77
2021/05/23 05:31:16;;;;;;;11.50;10.00;;;;;;;23.49;42.89;94606.20;828349;71;33286;-77
2021/05/23 05:46:16;;;;;;;8.50;7.80;;;;;;;24.65;40.15;94612.14;835833;71;32760;-77
2021/05/23 06:01:09;;;;;;;10.40;9.53;;;;;;;25.32;39.35;94628.97;834563;71;29708;-76
2021/05/23 06:16:17;;;;;;;17.67;11.20;;;;;;;24.77;39.65;94635.98;827981;71;32788;-76
2021/05/23 06:31:10;;;;;;;11.03;9.93;;;;;;;24.77;40.05;94650.74;828168;71;30286;-74
2021/05/23 06:46:09;;;;;;;8.13;7.43;;;;;;;25.67;37.96;94650.36;828209;71;30225;-75
2021/05/23 07:01:13;;;;;;;9.70;8.80;;;;;;;25.79;36.71;94641.38;828819;71;32013;-77
2021/05/23 07:16:16;;;;;;;9.53;8.63;;;;;;;25.76;37.13;94621.97;834117;71;32658;-75
2021/05/23 07:31:09;;;;;;;6.27;5.77;;;;;;;25.78;36.24;94628.31;835232;71;30283;-75
2021/05/23 07:46:12;;;;;;;7.70;6.50;;;;;;;25.46;37.75;94623.63;829410;71;32506;-75
2021/05/23 08:01:12;;;;;;;7.23;6.53;;;;;;;26.32;36.87;94623.76;828425;71;30884;-76
2021/05/23 08:16:18;;;;;;;8.27;5.80;;;;;;;26.99;35.33;94613.27;829263;71;32742;-74
2021/05/23 08:31:14;;;;;;;5.77;5.37;;;;;;;27.89;33.86;94587.98;833937;71;32717;-76
2021/05/23 08:46:15;;;;;;;5.77;5.37;;;;;;;28.06;33.70;94596.33;827439;71;33154;-75
2021/05/23 09:01:58;;;;;;;5.70;5.30;;;;;;;28.62;32.40;94592.95;828170;71;32726;-74
2021/05/23 09:16:15;;;;;;;6.43;5.87;;;;;;;29.09;31.67;94590.49;827514;71;32756;-75
2021/05/23 09:31:17;;;;;;;5.60;5.20;;;;;;;29.13;30.84;94585.08;834056;71;29693;-76
2021/05/23 09:46:09;;;;;;;6.13;5.00;;;;;;;29.85;30.21;94565.20;834321;71;30224;-75
2021/05/23 10:01:30;;;;;;;5.23;4.83;;;;;;;30.16;30.39;94548.24;827583;71;33171;-77
2021/05/23 10:16:15;;;;;;;5.03;4.70;;;;;;;29.92;29.74;94533.35;828542;71;32691;-77
2021/05/23 10:31:16;;;;;;;4.50;4.10;;;;;;;29.89;29.69;94514.48;827467;71;32714;-75
2021/05/23 10:46:15;;;;;;;4.97;4.67;;;;;;;30.41;30.12;94504.48;827497;71;32671;-78
2021/05/23 11:01:21;;;;;;;5.50;4.57;;;;;;;29.79;29.16;94489.13;833984;71;32715;-78
2021/05/23 11:16:17;;;;;;;5.57;5.07;;;;;;;30.01;29.49;94471.95;833818;71;30211;-78
2021/05/23 11:31:08;;;;;;;5.17;4.77;;;;;;;29.75;29.60;94454.02;828376;71;29839;-76
2021/05/23 11:46:15;;;;;;;5.20;4.80;;;;;;;30.03;29.63;94439.03;834078;71;33174;-76
2021/05/23 12:01:25;;;;;;;4.70;4.30;;;;;;;30.06;29.76;94413.86;834123;71;32709;-77
2021/05/23 12:16:17;;;;;;;4.70;4.40;;;;;;;29.56;30.58;94402.73;827819;71;32645;-75
2021/05/23 12:31:18;;;;;;;4.27;4.07;;;;;;;29.52;30.78;94378.27;827470;71;33149;-78
2021/05/23 12:46:10;;;;;;;4.10;3.80;;;;;;;29.65;30.16;94360.27;834210;71;29698;-79
2021/05/23 13:01:21;;;;;;;4.03;3.83;;;;;;;29.90;29.57;94332.00;827608;71;33202;-76
2021/05/23 13:16:15;;;;;;;3.90;3.70;;;;;;;29.83;29.67;94331.56;827695;71;32709;-75
2021/05/23 13:31:09;;;;;;;3.70;3.50;;;;;;;29.72;29.31;94312.05;828658;71;30297;-78
2021/05/23 13:46:22;;;;;;;3.87;3.67;;;;;;;29.56;29.52;94306.73;834154;71;32491;-77
2021/05/23 14:01:10;;;;;;;4.03;3.73;;;;;;;29.29;29.83;94291.19;829759;71;30337;-79
2021/05/23 14:16:09;;;;;;;4.53;3.63;;;;;;;29.32;29.18;94280.89;828643;71;31085;-78
2021/05/23 14:31:15;;;;;;;4.63;3.00;;;;;;;29.34;28.55;94280.67;827480;71;33228;-75
2021/05/23 14:46:09;;;;;;;3.90;3.57;;;;;;;29.36;28.06;94268.85;828370;71;29709;-75
2021/05/23 15:16:09;;;;;;;3.17;2.87;;;;;;;29.23;28.13;94287.44;834131;71;30326;-75
2021/05/23 15:31:17;;;;;;;3.00;2.80;;;;;;;28.98;29.13;94285.14;834976;71;30354;-78
2021/05/23 15:46:11;;;;;;;2.97;2.77;;;;;;;28.79;28.64;94284.64;827900;71;31441;-78
2021/05/23 16:01:09;;;;;;;2.30;2.20;;;;;;;28.54;28.93;94296.59;829663;71;30208;-78
2021/05/23 16:16:15;;;;;;;2.80;2.57;;;;;;;28.30;29.16;94317.34;833826;71;33718;-76
2021/05/23 16:31:09;;;;;;;2.80;2.60;;;;;;;27.95;29.84;94323.97;828411;71;29328;-76
2021/05/23 16:46:12;;;;;;;3.70;2.70;;;;;;;27.55;30.27;94335.73;834114;71;30972;-76
2021/05/23 17:01:07;;;;;;;2.80;2.53;;;;;;;;;;834111;71;29444;-78
2021/05/23 17:16:14;;;;;;;4.30;2.73;;;;;;;;;;827662;71;32011;-77
2021/05/23 17:31:09;;;;;;;4.57;3.07;;;;;;;26.36;31.41;94335.26;828275;71;29270;-75
2021/05/23 17:46:12;;;;;;;3.40;2.80;;;;;;;26.03;100.00;123554.15;828309;71;31072;-76
2021/05/23 18:01:08;;;;;;;4.07;3.40;;;;;;;25.64;32.22;94345.50;829035;71;28854;-78
2021/05/23 18:16:15;;;;;;;3.90;3.50;;;;;;;25.25;33.27;94371.86;827488;71;31673;-76
2021/05/23 18:31:19;;;;;;;5.60;5.10;;;;;;;24.90;34.92;94408.26;834615;71;31748;-74
2021/05/23 18:46:08;;;;;;;7.97;5.43;;;;;;;24.42;38.72;94437.24;828367;71;28636;-76
2021/05/23 19:01:15;;;;;;;13.10;11.57;;;;;;;23.95;41.62;94459.80;829579;71;31755;-79
2021/05/23 19:16:12;;;;;;;8.17;6.10;;;;;;;23.57;42.77;94489.94;828280;71;29819;-77
2021/05/23 19:31:08;;;;;;;7.60;6.77;;;;;;;23.09;44.27;94500.60;828512;71;28666;-77
2021/05/23 19:46:08;;;;;;;8.50;6.20;;;;;;;22.68;45.22;94509.89;828490;71;28715;-78
2021/05/23 20:01:16;;;;;;;6.20;5.60;;;;;;;22.38;46.34;94510.66;828537;71;31001;-77
2021/05/23 20:16:11;;;;;;;6.97;5.67;;;;;;;22.07;47.02;94530.45;828235;71;29655;-77
2021/05/23 20:31:08;;;;;;;6.83;6.23;;;;;;;21.83;47.84;94543.08;834080;71;28664;-77
2021/05/23 20:46:14;;;;;;;7.53;6.30;;;;;;;21.60;49.39;94562.56;827483;71;32669;-76
2021/05/23 21:01:52;;;;;;;7.15;6.50;;;;;;;21.39;50.59;94596.86;828193;71;30273;-78
2021/05/23 21:16:09;;;;;;;8.05;7.25;;;;;;;21.19;51.38;94604.14;834127;71;29711;-79
2021/05/23 21:31:10;;;;;;;7.58;6.75;;;;;;;20.96;51.92;94638.17;828164;71;30352;-79
2021/05/23 21:46:15;;;;;;;7.17;6.50;;;;;;;20.80;52.26;94620.91;828943;71;32644;-77
2021/05/23 22:01:10;;;;;;;6.97;6.15;;;;;;;20.56;52.71;94636.56;828401;71;29719;-75
2021/05/23 22:16:10;;;;;;;7.22;6.30;;;;;;;20.49;52.90;94660.95;829338;71;30386;-77
2021/05/23 22:31:08;;;;;;;7.37;5.75;;;;;;;20.29;53.74;94680.86;828574;71;29767;-76
2021/05/23 22:46:10;;;;;;;5.97;5.37;;;;;;;20.15;54.16;94662.67;834038;71;30259;-78
2021/05/23 23:01:31;;;;;;;6.58;5.97;;;;;;;19.98;54.69;94679.75;827306;71;33139;-78
2021/05/23 23:16:14;;;;;;;5.50;5.10;;;;;;;19.83;55.45;94687.72;827451;71;32820;-78
2021/05/23 23:31:17;;;;;;;6.22;5.47;;;;;;;19.61;56.30;94679.16;827270;71;32763;-74
2021/05/23 23:46:13;;;;;;;5.83;5.40;;;;;;;19.45;57.20;94673.03;834308;71;32655;-75
